Terminal Aerodrome Forecast
Issued by NWS

Home | Current Version | Previous Version | Text Only | Print | Product List | Glossary Off
Versions: 1 2 3 4 5 6 7 8 9 10 11 12 13

081
FTUS43 KUNR 211120
TAFGCC
TAF
KGCC 211120Z 2112/2212 14012KT P6SM BKN150
     FM211500 16015G25KT P6SM OVC035
     FM212000 15015G25KT P6SM -SHRA BKN045
     FM220100 22010KT 4SM -SHRA OVC020=

USA.gov is the U.S. government's official web portal to all federal, state and local government web resources and services.